sensor_id;sensor_type;location;lat;lon;timestamp;P1;durP1;ratioP1;P2;durP2;ratioP2
21010;SDS011;10663;42.714;23.274;2023-03-01T00:00:42;4.90;;;4.10;;
21010;SDS011;10663;42.714;23.274;2023-03-01T00:02:17;5.38;;;4.50;;
21010;SDS011;10663;42.714;23.274;2023-03-01T00:03:48;6.53;;;4.32;;
21010;SDS011;10663;42.714;23.274;2023-03-01T00:05:19;5.15;;;4.20;;
21010;SDS011;10663;42.714;23.274;2023-03-01T00:06:50;5.35;;;4.45;;
21010;SDS011;10663;42.714;23.274;2023-03-01T00:08:21;4.80;;;4.03;;
21010;SDS011;10663;42.714;23.274;2023-03-01T00:09:52;4.97;;;4.43;;
21010;SDS011;10663;42.714;23.274;2023-03-01T00:11:23;5.40;;;4.50;;
21010;SDS011;10663;42.714;23.274;2023-03-01T00:12:56;5.30;;;4.80;;
21010;SDS011;10663;42.714;23.274;2023-03-01T00:40:53;4.30;;;3.30;;
21010;SDS011;10663;42.714;23.274;2023-03-01T00:42:25;4.40;;;3.40;;
21010;SDS011;10663;42.714;23.274;2023-03-01T00:43:56;3.30;;;3.00;;
21010;SDS011;10663;42.714;23.274;2023-03-01T00:45:27;3.70;;;3.20;;
21010;SDS011;10663;42.714;23.274;2023-03-01T00:46:58;3.60;;;3.30;;
21010;SDS011;10663;42.714;23.274;2023-03-01T00:48:29;3.53;;;2.90;;
21010;SDS011;10663;42.714;23.274;2023-03-01T00:50:00;3.88;;;3.22;;
21010;SDS011;10663;42.714;23.274;2023-03-01T00:51:31;3.50;;;3.05;;
21010;SDS011;10663;42.714;23.274;2023-03-01T00:53:02;3.20;;;2.90;;
21010;SDS011;10663;42.714;23.274;2023-03-01T00:54:33;3.30;;;3.00;;
21010;SDS011;10663;42.714;23.274;2023-03-01T00:56:04;3.55;;;3.25;;
21010;SDS011;10663;42.714;23.274;2023-03-01T00:57:36;3.85;;;3.40;;
21010;SDS011;10663;42.714;23.274;2023-03-01T00:59:07;3.67;;;2.90;;
21010;SDS011;10663;42.714;23.274;2023-03-01T01:00:38;3.07;;;2.87;;
21010;SDS011;10663;42.714;23.274;2023-03-01T01:02:09;3.50;;;3.20;;
21010;SDS011;10663;42.714;23.274;2023-03-01T01:03:41;3.55;;;3.10;;
21010;SDS011;10663;42.714;23.274;2023-03-01T01:05:12;3.70;;;3.35;;
21010;SDS011;10663;42.714;23.274;2023-03-01T01:06:45;3.73;;;3.27;;
21010;SDS011;10663;42.714;23.274;2023-03-01T01:08:17;3.45;;;3.13;;
21010;SDS011;10663;42.714;23.274;2023-03-01T01:09:48;3.35;;;3.05;;
21010;SDS011;10663;42.714;23.274;2023-03-01T01:11:21;3.15;;;2.85;;
21010;SDS011;10663;42.714;23.274;2023-03-01T01:12:53;3.33;;;3.03;;
21010;SDS011;10663;42.714;23.274;2023-03-01T01:14:24;3.30;;;3.00;;
21010;SDS011;10663;42.714;23.274;2023-03-01T01:15:59;3.42;;;3.00;;
21010;SDS011;10663;42.714;23.274;2023-03-01T01:17:31;3.30;;;2.97;;
21010;SDS011;10663;42.714;23.274;2023-03-01T01:19:03;3.20;;;2.90;;
21010;SDS011;10663;42.714;23.274;2023-03-01T01:20:34;3.22;;;2.92;;
21010;SDS011;10663;42.714;23.274;2023-03-01T01:22:06;3.35;;;3.05;;
21010;SDS011;10663;42.714;23.274;2023-03-01T01:23:37;2.95;;;2.65;;
21010;SDS011;10663;42.714;23.274;2023-03-01T01:25:10;3.30;;;3.00;;
21010;SDS011;10663;42.714;23.274;2023-03-01T01:26:41;2.90;;;2.70;;
21010;SDS011;10663;42.714;23.274;2023-03-01T01:28:12;3.40;;;3.10;;
21010;SDS011;10663;42.714;23.274;2023-03-01T01:29:43;3.40;;;3.10;;
21010;SDS011;10663;42.714;23.274;2023-03-01T01:31:14;3.35;;;3.05;;
21010;SDS011;10663;42.714;23.274;2023-03-01T01:32:45;3.50;;;3.20;;
21010;SDS011;10663;42.714;23.274;2023-03-01T01:34:17;3.38;;;3.08;;
21010;SDS011;10663;42.714;23.274;2023-03-01T01:35:50;3.60;;;3.30;;
21010;SDS011;10663;42.714;23.274;2023-03-01T01:37:21;4.28;;;3.60;;
21010;SDS011;10663;42.714;23.274;2023-03-01T01:38:52;4.20;;;3.80;;
21010;SDS011;10663;42.714;23.274;2023-03-01T01:40:23;3.30;;;3.00;;
21010;SDS011;10663;42.714;23.274;2023-03-01T01:41:54;3.40;;;3.10;;
21010;SDS011;10663;42.714;23.274;2023-03-01T01:43:26;3.47;;;3.13;;
21010;SDS011;10663;42.714;23.274;2023-03-01T01:48:39;3.60;;;3.30;;
21010;SDS011;10663;42.714;23.274;2023-03-01T01:50:17;3.22;;;2.92;;
21010;SDS011;10663;42.714;23.274;2023-03-01T01:51:49;3.40;;;3.10;;
21010;SDS011;10663;42.714;23.274;2023-03-01T01:53:26;3.00;;;2.70;;
21010;SDS011;10663;42.714;23.274;2023-03-01T01:55:00;3.27;;;2.97;;
21010;SDS011;10663;42.714;23.274;2023-03-01T01:56:32;3.20;;;3.00;;
21010;SDS011;10663;42.714;23.274;2023-03-01T01:58:04;3.60;;;3.30;;
21010;SDS011;10663;42.714;23.274;2023-03-01T01:59:37;4.03;;;3.60;;
21010;SDS011;10663;42.714;23.274;2023-03-01T02:01:09;4.10;;;3.70;;
21010;SDS011;10663;42.714;23.274;2023-03-01T02:02:41;5.30;;;4.80;;
21010;SDS011;10663;42.714;23.274;2023-03-01T02:04:13;5.38;;;4.88;;
21010;SDS011;10663;42.714;23.274;2023-03-01T02:06:19;6.23;;;5.60;;
21010;SDS011;10663;42.714;23.274;2023-03-01T02:07:59;4.30;;;3.90;;
21010;SDS011;10663;42.714;23.274;2023-03-01T02:09:31;3.30;;;3.00;;
21010;SDS011;10663;42.714;23.274;2023-03-01T02:11:05;2.83;;;2.60;;
21010;SDS011;10663;42.714;23.274;2023-03-01T02:12:38;2.60;;;2.40;;
21010;SDS011;10663;42.714;23.274;2023-03-01T02:14:10;2.38;;;2.17;;
21010;SDS011;10663;42.714;23.274;2023-03-01T02:15:41;2.65;;;2.45;;
21010;SDS011;10663;42.714;23.274;2023-03-01T02:17:15;2.83;;;2.30;;
21010;SDS011;10663;42.714;23.274;2023-03-01T02:18:48;2.50;;;2.30;;
21010;SDS011;10663;42.714;23.274;2023-03-01T02:20:35;3.00;;;2.30;;
21010;SDS011;10663;42.714;23.274;2023-03-01T02:22:23;2.42;;;2.22;;
21010;SDS011;10663;42.714;23.274;2023-03-01T02:23:59;2.35;;;2.15;;
21010;SDS011;10663;42.714;23.274;2023-03-01T02:27:28;2.72;;;2.35;;
21010;SDS011;10663;42.714;23.274;2023-03-01T02:29:09;3.08;;;2.78;;
21010;SDS011;10663;42.714;23.274;2023-03-01T02:30:40;2.97;;;2.60;;
21010;SDS011;10663;42.714;23.274;2023-03-01T02:32:32;2.55;;;2.35;;
21010;SDS011;10663;42.714;23.274;2023-03-01T02:34:04;2.75;;;2.40;;
21010;SDS011;10663;42.714;23.274;2023-03-01T02:35:37;3.05;;;2.75;;
21010;SDS011;10663;42.714;23.274;2023-03-01T02:37:11;2.70;;;2.50;;
21010;SDS011;10663;42.714;23.274;2023-03-01T02:38:45;2.70;;;2.50;;
21010;SDS011;10663;42.714;23.274;2023-03-01T02:40:18;2.67;;;2.40;;
21010;SDS011;10663;42.714;23.274;2023-03-01T02:41:52;2.63;;;2.42;;
21010;SDS011;10663;42.714;23.274;2023-03-01T02:43:27;3.10;;;2.80;;
21010;SDS011;10663;42.714;23.274;2023-03-01T02:45:01;3.00;;;2.70;;
21010;SDS011;10663;42.714;23.274;2023-03-01T02:46:33;3.10;;;2.90;;
21010;SDS011;10663;42.714;23.274;2023-03-01T02:48:04;3.25;;;2.95;;
21010;SDS011;10663;42.714;23.274;2023-03-01T02:49:35;4.67;;;3.30;;
21010;SDS011;10663;42.714;23.274;2023-03-01T02:51:11;3.15;;;2.95;;
21010;SDS011;10663;42.714;23.274;2023-03-01T02:53:13;3.30;;;3.00;;
21010;SDS011;10663;42.714;23.274;2023-03-01T02:55:02;3.47;;;3.17;;
21010;SDS011;10663;42.714;23.274;2023-03-01T02:56:34;2.80;;;2.60;;
21010;SDS011;10663;42.714;23.274;2023-03-01T02:58:07;3.17;;;2.88;;
21010;SDS011;10663;42.714;23.274;2023-03-01T02:59:39;2.90;;;2.70;;
21010;SDS011;10663;42.714;23.274;2023-03-01T03:01:13;2.80;;;2.60;;
21010;SDS011;10663;42.714;23.274;2023-03-01T03:02:46;3.00;;;2.78;;
21010;SDS011;10663;42.714;23.274;2023-03-01T03:04:22;2.80;;;2.40;;
21010;SDS011;10663;42.714;23.274;2023-03-01T03:05:54;2.90;;;2.50;;
21010;SDS011;10663;42.714;23.274;2023-03-01T03:07:25;2.67;;;2.45;;
21010;SDS011;10663;42.714;23.274;2023-03-01T03:08:56;2.67;;;2.47;;
21010;SDS011;10663;42.714;23.274;2023-03-01T03:10:29;3.03;;;2.58;;
21010;SDS011;10663;42.714;23.274;2023-03-01T03:12:06;2.70;;;2.50;;
21010;SDS011;10663;42.714;23.274;2023-03-01T03:13:37;2.83;;;2.63;;
21010;SDS011;10663;42.714;23.274;2023-03-01T03:15:18;2.60;;;2.38;;
21010;SDS011;10663;42.714;23.274;2023-03-01T03:16:50;2.70;;;2.50;;
21010;SDS011;10663;42.714;23.274;2023-03-01T03:18:22;2.95;;;2.30;;
21010;SDS011;10663;42.714;23.274;2023-03-01T03:19:56;2.72;;;2.42;;
21010;SDS011;10663;42.714;23.274;2023-03-01T03:21:27;3.28;;;2.58;;
21010;SDS011;10663;42.714;23.274;2023-03-01T03:22:58;3.95;;;2.80;;
21010;SDS011;10663;42.714;23.274;2023-03-01T03:24:29;3.55;;;2.60;;
21010;SDS011;10663;42.714;23.274;2023-03-01T03:26:08;3.50;;;2.90;;
21010;SDS011;10663;42.714;23.274;2023-03-01T03:27:40;2.78;;;2.42;;
21010;SDS011;10663;42.714;23.274;2023-03-01T03:29:13;2.75;;;2.55;;
21010;SDS011;10663;42.714;23.274;2023-03-01T03:30:44;2.60;;;2.40;;
21010;SDS011;10663;42.714;23.274;2023-03-01T03:32:17;2.90;;;2.65;;
21010;SDS011;10663;42.714;23.274;2023-03-01T03:33:47;3.00;;;2.70;;
21010;SDS011;10663;42.714;23.274;2023-03-01T03:35:20;3.15;;;2.85;;
21010;SDS011;10663;42.714;23.274;2023-03-01T03:36:57;3.22;;;2.92;;
21010;SDS011;10663;42.714;23.274;2023-03-01T03:38:29;4.53;;;2.80;;
21010;SDS011;10663;42.714;23.274;2023-03-01T03:40:00;2.70;;;2.50;;
21010;SDS011;10663;42.714;23.274;2023-03-01T03:41:32;3.17;;;2.88;;
21010;SDS011;10663;42.714;23.274;2023-03-01T03:43:07;2.90;;;2.70;;
21010;SDS011;10663;42.714;23.274;2023-03-01T03:44:42;3.10;;;2.80;;
21010;SDS011;10663;42.714;23.274;2023-03-01T03:46:13;3.30;;;2.70;;
21010;SDS011;10663;42.714;23.274;2023-03-01T03:47:44;3.40;;;3.10;;
21010;SDS011;10663;42.714;23.274;2023-03-01T03:49:15;3.77;;;3.40;;
21010;SDS011;10663;42.714;23.274;2023-03-01T03:50:50;3.30;;;3.00;;
21010;SDS011;10663;42.714;23.274;2023-03-01T03:52:22;3.88;;;3.30;;
21010;SDS011;10663;42.714;23.274;2023-03-01T03:53:53;3.20;;;2.90;;
21010;SDS011;10663;42.714;23.274;2023-03-01T03:55:24;3.30;;;3.00;;
21010;SDS011;10663;42.714;23.274;2023-03-01T03:57:00;3.97;;;3.17;;
21010;SDS011;10663;42.714;23.274;2023-03-01T03:58:31;3.70;;;3.40;;
21010;SDS011;10663;42.714;23.274;2023-03-01T04:00:03;4.28;;;3.28;;
21010;SDS011;10663;42.714;23.274;2023-03-01T04:01:42;3.45;;;3.10;;
21010;SDS011;10663;42.714;23.274;2023-03-01T04:03:15;4.00;;;3.60;;
21010;SDS011;10663;42.714;23.274;2023-03-01T04:04:49;3.58;;;3.20;;
21010;SDS011;10663;42.714;23.274;2023-03-01T04:06:20;3.42;;;3.13;;
21010;SDS011;10663;42.714;23.274;2023-03-01T04:07:51;3.40;;;3.10;;
21010;SDS011;10663;42.714;23.274;2023-03-01T04:09:31;3.10;;;2.80;;
21010;SDS011;10663;42.714;23.274;2023-03-01T04:11:03;2.80;;;2.60;;
21010;SDS011;10663;42.714;23.274;2023-03-01T04:12:54;2.80;;;2.60;;
21010;SDS011;10663;42.714;23.274;2023-03-01T04:14:28;3.65;;;2.58;;
21010;SDS011;10663;42.714;23.274;2023-03-01T04:15:59;3.23;;;2.90;;
21010;SDS011;10663;42.714;23.274;2023-03-01T04:17:30;3.97;;;2.73;;
21010;SDS011;10663;42.714;23.274;2023-03-01T04:19:00;3.40;;;3.10;;
21010;SDS011;10663;42.714;23.274;2023-03-01T04:20:32;4.03;;;3.00;;
21010;SDS011;10663;42.714;23.274;2023-03-01T04:22:05;3.90;;;3.10;;
21010;SDS011;10663;42.714;23.274;2023-03-01T04:23:39;2.80;;;2.60;;
21010;SDS011;10663;42.714;23.274;2023-03-01T04:25:11;2.80;;;2.60;;
21010;SDS011;10663;42.714;23.274;2023-03-01T04:26:44;2.95;;;2.75;;
21010;SDS011;10663;42.714;23.274;2023-03-01T04:28:15;2.90;;;2.70;;
21010;SDS011;10663;42.714;23.274;2023-03-01T04:29:46;3.30;;;3.00;;
21010;SDS011;10663;42.714;23.274;2023-03-01T04:31:17;3.38;;;3.00;;
21010;SDS011;10663;42.714;23.274;2023-03-01T04:32:51;3.90;;;3.50;;
21010;SDS011;10663;42.714;23.274;2023-03-01T04:34:22;3.88;;;3.47;;
21010;SDS011;10663;42.714;23.274;2023-03-01T04:35:52;3.42;;;3.15;;
21010;SDS011;10663;42.714;23.274;2023-03-01T04:37:23;4.13;;;3.10;;
21010;SDS011;10663;42.714;23.274;2023-03-01T04:38:55;3.50;;;3.20;;
21010;SDS011;10663;42.714;23.274;2023-03-01T04:40:26;3.50;;;3.20;;
21010;SDS011;10663;42.714;23.274;2023-03-01T04:41:57;3.53;;;3.10;;
21010;SDS011;10663;42.714;23.274;2023-03-01T04:43:28;3.72;;;3.42;;
21010;SDS011;10663;42.714;23.274;2023-03-01T04:44:59;3.22;;;2.95;;
21010;SDS011;10663;42.714;23.274;2023-03-01T04:46:30;3.45;;;3.05;;
21010;SDS011;10663;42.714;23.274;2023-03-01T04:48:01;4.03;;;3.35;;
21010;SDS011;10663;42.714;23.274;2023-03-01T04:49:33;3.60;;;3.30;;
21010;SDS011;10663;42.714;23.274;2023-03-01T04:51:04;3.47;;;3.17;;
21010;SDS011;10663;42.714;23.274;2023-03-01T04:52:36;3.90;;;3.45;;
21010;SDS011;10663;42.714;23.274;2023-03-01T04:54:06;4.00;;;3.60;;
21010;SDS011;10663;42.714;23.274;2023-03-01T04:55:39;4.25;;;3.78;;
21010;SDS011;10663;42.714;23.274;2023-03-01T04:57:09;4.75;;;4.10;;
21010;SDS011;10663;42.714;23.274;2023-03-01T04:58:40;5.05;;;3.95;;
21010;SDS011;10663;42.714;23.274;2023-03-01T05:00:12;5.60;;;4.60;;
21010;SDS011;10663;42.714;23.274;2023-03-01T05:01:53;5.97;;;4.90;;
21010;SDS011;10663;42.714;23.274;2023-03-01T05:03:30;5.95;;;5.07;;
21010;SDS011;10663;42.714;23.274;2023-03-01T05:05:01;5.82;;;4.70;;
21010;SDS011;10663;42.714;23.274;2023-03-01T05:06:32;6.03;;;5.13;;
21010;SDS011;10663;42.714;23.274;2023-03-01T05:08:04;5.57;;;4.35;;
21010;SDS011;10663;42.714;23.274;2023-03-01T05:09:37;5.03;;;4.35;;
21010;SDS011;10663;42.714;23.274;2023-03-01T05:11:08;5.65;;;4.38;;
21010;SDS011;10663;42.714;23.274;2023-03-01T05:12:40;5.00;;;4.50;;
21010;SDS011;10663;42.714;23.274;2023-03-01T05:14:11;6.77;;;4.73;;
21010;SDS011;10663;42.714;23.274;2023-03-01T05:15:42;4.83;;;4.33;;
21010;SDS011;10663;42.714;23.274;2023-03-01T05:17:13;5.65;;;4.25;;
21010;SDS011;10663;42.714;23.274;2023-03-01T05:18:43;6.60;;;4.57;;
21010;SDS011;10663;42.714;23.274;2023-03-01T05:20:16;7.55;;;4.75;;
21010;SDS011;10663;42.714;23.274;2023-03-01T05:21:47;6.63;;;4.70;;
21010;SDS011;10663;42.714;23.274;2023-03-01T05:23:34;4.93;;;3.60;;
21010;SDS011;10663;42.714;23.274;2023-03-01T05:25:05;6.30;;;4.13;;
21010;SDS011;10663;42.714;23.274;2023-03-01T05:26:37;5.22;;;4.43;;
21010;SDS011;10663;42.714;23.274;2023-03-01T05:28:11;4.57;;;4.07;;
21010;SDS011;10663;42.714;23.274;2023-03-01T05:29:42;5.30;;;4.63;;
21010;SDS011;10663;42.714;23.274;2023-03-01T05:31:13;5.33;;;4.57;;
21010;SDS011;10663;42.714;23.274;2023-03-01T05:32:44;5.43;;;4.30;;
21010;SDS011;10663;42.714;23.274;2023-03-01T05:34:27;5.15;;;3.90;;
21010;SDS011;10663;42.714;23.274;2023-03-01T05:36:00;4.43;;;3.70;;
21010;SDS011;10663;42.714;23.274;2023-03-01T05:37:31;5.30;;;4.20;;
21010;SDS011;10663;42.714;23.274;2023-03-01T05:39:02;5.47;;;4.15;;
21010;SDS011;10663;42.714;23.274;2023-03-01T05:40:33;5.65;;;4.55;;
21010;SDS011;10663;42.714;23.274;2023-03-01T05:42:05;4.82;;;4.10;;
21010;SDS011;10663;42.714;23.274;2023-03-01T05:43:35;5.00;;;4.50;;
21010;SDS011;10663;42.714;23.274;2023-03-01T05:45:06;4.40;;;4.00;;
21010;SDS011;10663;42.714;23.274;2023-03-01T05:46:40;6.13;;;4.70;;
21010;SDS011;10663;42.714;23.274;2023-03-01T05:48:11;6.83;;;4.73;;
21010;SDS011;10663;42.714;23.274;2023-03-01T05:49:43;5.82;;;5.10;;
21010;SDS011;10663;42.714;23.274;2023-03-01T05:51:13;6.10;;;5.10;;
21010;SDS011;10663;42.714;23.274;2023-03-01T05:52:47;5.78;;;4.72;;
21010;SDS011;10663;42.714;23.274;2023-03-01T05:54:21;7.32;;;5.18;;
21010;SDS011;10663;42.714;23.274;2023-03-01T05:55:52;5.60;;;4.80;;
21010;SDS011;10663;42.714;23.274;2023-03-01T05:57:23;6.20;;;4.93;;
21010;SDS011;10663;42.714;23.274;2023-03-01T05:58:54;6.10;;;5.20;;
21010;SDS011;10663;42.714;23.274;2023-03-01T06:00:26;6.30;;;5.30;;
21010;SDS011;10663;42.714;23.274;2023-03-01T06:01:59;6.45;;;5.00;;
21010;SDS011;10663;42.714;23.274;2023-03-01T06:03:29;7.10;;;5.45;;
21010;SDS011;10663;42.714;23.274;2023-03-01T06:05:00;7.43;;;5.40;;
21010;SDS011;10663;42.714;23.274;2023-03-01T06:06:35;6.20;;;5.50;;
21010;SDS011;10663;42.714;23.274;2023-03-01T06:08:08;6.20;;;5.05;;
21010;SDS011;10663;42.714;23.274;2023-03-01T06:09:40;6.82;;;5.30;;
21010;SDS011;10663;42.714;23.274;2023-03-01T06:11:11;6.03;;;5.43;;
21010;SDS011;10663;42.714;23.274;2023-03-01T06:12:42;6.30;;;5.33;;
21010;SDS011;10663;42.714;23.274;2023-03-01T06:14:14;7.97;;;5.50;;
21010;SDS011;10663;42.714;23.274;2023-03-01T06:15:44;5.80;;;5.00;;
21010;SDS011;10663;42.714;23.274;2023-03-01T06:17:15;6.15;;;4.90;;
21010;SDS011;10663;42.714;23.274;2023-03-01T06:18:46;5.68;;;4.82;;
21010;SDS011;10663;42.714;23.274;2023-03-01T06:20:18;8.18;;;5.60;;
21010;SDS011;10663;42.714;23.274;2023-03-01T06:21:50;6.70;;;5.32;;
21010;SDS011;10663;42.714;23.274;2023-03-01T06:23:22;7.63;;;5.10;;
21010;SDS011;10663;42.714;23.274;2023-03-01T06:24:53;6.50;;;5.25;;
21010;SDS011;10663;42.714;23.274;2023-03-01T06:26:24;6.15;;;4.93;;
21010;SDS011;10663;42.714;23.274;2023-03-01T06:27:55;6.78;;;5.05;;
21010;SDS011;10663;42.714;23.274;2023-03-01T06:29:26;6.00;;;5.00;;
21010;SDS011;10663;42.714;23.274;2023-03-01T06:30:57;5.82;;;5.07;;
21010;SDS011;10663;42.714;23.274;2023-03-01T06:32:28;8.18;;;5.43;;
21010;SDS011;10663;42.714;23.274;2023-03-01T06:34:00;5.90;;;5.20;;
21010;SDS011;10663;42.714;23.274;2023-03-01T06:35:31;7.37;;;4.67;;
21010;SDS011;10663;42.714;23.274;2023-03-01T06:37:02;5.28;;;4.65;;
21010;SDS011;10663;42.714;23.274;2023-03-01T06:38:35;6.20;;;4.60;;
21010;SDS011;10663;42.714;23.274;2023-03-01T06:40:07;6.28;;;4.50;;
21010;SDS011;10663;42.714;23.274;2023-03-01T06:41:41;5.65;;;4.47;;
21010;SDS011;10663;42.714;23.274;2023-03-01T06:43:12;5.55;;;4.28;;
21010;SDS011;10663;42.714;23.274;2023-03-01T06:44:43;6.47;;;4.05;;
21010;SDS011;10663;42.714;23.274;2023-03-01T06:46:15;5.28;;;4.00;;
21010;SDS011;10663;42.714;23.274;2023-03-01T06:47:46;4.72;;;3.60;;
21010;SDS011;10663;42.714;23.274;2023-03-01T06:49:17;5.43;;;3.85;;
21010;SDS011;10663;42.714;23.274;2023-03-01T06:50:48;5.07;;;3.70;;
21010;SDS011;10663;42.714;23.274;2023-03-01T06:52:19;5.95;;;3.90;;
21010;SDS011;10663;42.714;23.274;2023-03-01T06:53:50;4.80;;;3.60;;
21010;SDS011;10663;42.714;23.274;2023-03-01T06:55:21;5.87;;;3.30;;
21010;SDS011;10663;42.714;23.274;2023-03-01T06:56:52;5.03;;;3.80;;
21010;SDS011;10663;42.714;23.274;2023-03-01T06:58:23;4.97;;;3.40;;
21010;SDS011;10663;42.714;23.274;2023-03-01T06:59:54;4.75;;;3.50;;
21010;SDS011;10663;42.714;23.274;2023-03-01T07:01:25;3.78;;;3.38;;
21010;SDS011;10663;42.714;23.274;2023-03-01T07:02:58;4.75;;;3.60;;
21010;SDS011;10663;42.714;23.274;2023-03-01T07:04:29;5.10;;;3.05;;
21010;SDS011;10663;42.714;23.274;2023-03-01T07:06:00;4.60;;;3.40;;
21010;SDS011;10663;42.714;23.274;2023-03-01T07:07:31;5.90;;;3.50;;
21010;SDS011;10663;42.714;23.274;2023-03-01T07:09:02;4.80;;;3.10;;
21010;SDS011;10663;42.714;23.274;2023-03-01T07:10:33;5.57;;;3.63;;
21010;SDS011;10663;42.714;23.274;2023-03-01T07:12:04;4.38;;;3.33;;
21010;SDS011;10663;42.714;23.274;2023-03-01T07:13:35;3.35;;;3.00;;
21010;SDS011;10663;42.714;23.274;2023-03-01T07:15:08;3.83;;;3.40;;
21010;SDS011;10663;42.714;23.274;2023-03-01T07:16:40;4.70;;;3.35;;
21010;SDS011;10663;42.714;23.274;2023-03-01T07:18:11;3.92;;;3.53;;
21010;SDS011;10663;42.714;23.274;2023-03-01T07:19:42;5.63;;;3.72;;
21010;SDS011;10663;42.714;23.274;2023-03-01T07:21:14;5.40;;;3.80;;
21010;SDS011;10663;42.714;23.274;2023-03-01T07:22:45;5.00;;;3.90;;
21010;SDS011;10663;42.714;23.274;2023-03-01T07:24:16;6.53;;;3.95;;
21010;SDS011;10663;42.714;23.274;2023-03-01T07:25:53;6.07;;;4.00;;
21010;SDS011;10663;42.714;23.274;2023-03-01T07:27:24;8.02;;;4.60;;
21010;SDS011;10663;42.714;23.274;2023-03-01T07:28:55;6.63;;;4.05;;
21010;SDS011;10663;42.714;23.274;2023-03-01T07:30:30;5.65;;;3.65;;
21010;SDS011;10663;42.714;23.274;2023-03-01T07:32:00;6.65;;;3.97;;
21010;SDS011;10663;42.714;23.274;2023-03-01T07:33:32;5.28;;;3.72;;
21010;SDS011;10663;42.714;23.274;2023-03-01T07:35:03;4.20;;;3.80;;
21010;SDS011;10663;42.714;23.274;2023-03-01T07:36:34;6.70;;;4.30;;
21010;SDS011;10663;42.714;23.274;2023-03-01T07:38:05;4.33;;;3.33;;
21010;SDS011;10663;42.714;23.274;2023-03-01T07:39:35;7.00;;;3.90;;
21010;SDS011;10663;42.714;23.274;2023-03-01T07:41:06;4.15;;;3.47;;
21010;SDS011;10663;42.714;23.274;2023-03-01T07:42:37;5.38;;;3.60;;
21010;SDS011;10663;42.714;23.274;2023-03-01T07:44:08;7.13;;;3.80;;
21010;SDS011;10663;42.714;23.274;2023-03-01T07:45:39;5.95;;;3.60;;
21010;SDS011;10663;42.714;23.274;2023-03-01T07:47:10;4.07;;;3.30;;
21010;SDS011;10663;42.714;23.274;2023-03-01T07:48:41;4.35;;;3.60;;
21010;SDS011;10663;42.714;23.274;2023-03-01T07:50:12;4.10;;;3.47;;
21010;SDS011;10663;42.714;23.274;2023-03-01T07:51:43;4.85;;;3.83;;
21010;SDS011;10663;42.714;23.274;2023-03-01T07:53:14;6.80;;;4.50;;
21010;SDS011;10663;42.714;23.274;2023-03-01T07:54:45;4.88;;;4.00;;
21010;SDS011;10663;42.714;23.274;2023-03-01T07:56:16;6.30;;;3.30;;
21010;SDS011;10663;42.714;23.274;2023-03-01T07:57:48;5.18;;;3.45;;
21010;SDS011;10663;42.714;23.274;2023-03-01T07:59:19;4.78;;;3.13;;
21010;SDS011;10663;42.714;23.274;2023-03-01T08:00:50;6.65;;;3.53;;
21010;SDS011;10663;42.714;23.274;2023-03-01T08:02:21;5.90;;;3.72;;
21010;SDS011;10663;42.714;23.274;2023-03-01T08:03:52;4.23;;;3.30;;
21010;SDS011;10663;42.714;23.274;2023-03-01T08:05:23;4.30;;;3.23;;
21010;SDS011;10663;42.714;23.274;2023-03-01T08:06:54;4.67;;;3.07;;
21010;SDS011;10663;42.714;23.274;2023-03-01T08:08:25;4.68;;;3.05;;
21010;SDS011;10663;42.714;23.274;2023-03-01T08:09:56;5.80;;;3.10;;
21010;SDS011;10663;42.714;23.274;2023-03-01T08:11:27;5.50;;;3.42;;
21010;SDS011;10663;42.714;23.274;2023-03-01T08:12:59;4.68;;;3.70;;
21010;SDS011;10663;42.714;23.274;2023-03-01T08:14:30;7.27;;;3.83;;
21010;SDS011;10663;42.714;23.274;2023-03-01T08:16:03;4.10;;;3.33;;
21010;SDS011;10663;42.714;23.274;2023-03-01T08:17:35;5.57;;;3.47;;
21010;SDS011;10663;42.714;23.274;2023-03-01T08:19:07;4.97;;;2.83;;
21010;SDS011;10663;42.714;23.274;2023-03-01T08:20:39;5.03;;;3.47;;
21010;SDS011;10663;42.714;23.274;2023-03-01T08:22:09;7.32;;;4.75;;
21010;SDS011;10663;42.714;23.274;2023-03-01T08:23:41;6.93;;;5.20;;
21010;SDS011;10663;42.714;23.274;2023-03-01T08:25:12;7.07;;;5.28;;
21010;SDS011;10663;42.714;23.274;2023-03-01T08:26:43;9.37;;;5.00;;
21010;SDS011;10663;42.714;23.274;2023-03-01T08:28:14;5.83;;;4.07;;
21010;SDS011;10663;42.714;23.274;2023-03-01T08:29:45;6.78;;;4.65;;
21010;SDS011;10663;42.714;23.274;2023-03-01T08:31:20;6.10;;;3.88;;
21010;SDS011;10663;42.714;23.274;2023-03-01T08:33:00;4.97;;;3.95;;
21010;SDS011;10663;42.714;23.274;2023-03-01T08:34:30;2.67;;;2.40;;
21010;SDS011;10663;42.714;23.274;2023-03-01T08:36:02;3.05;;;2.50;;
21010;SDS011;10663;42.714;23.274;2023-03-01T08:37:34;4.05;;;2.58;;
21010;SDS011;10663;42.714;23.274;2023-03-01T08:39:05;5.55;;;2.85;;
21010;SDS011;10663;42.714;23.274;2023-03-01T08:40:38;4.30;;;2.60;;
21010;SDS011;10663;42.714;23.274;2023-03-01T08:42:09;5.28;;;3.05;;
21010;SDS011;10663;42.714;23.274;2023-03-01T08:43:40;3.87;;;2.97;;
21010;SDS011;10663;42.714;23.274;2023-03-01T08:45:11;3.65;;;3.00;;
21010;SDS011;10663;42.714;23.274;2023-03-01T08:46:43;4.75;;;3.40;;
21010;SDS011;10663;42.714;23.274;2023-03-01T08:48:15;6.43;;;3.20;;
21010;SDS011;10663;42.714;23.274;2023-03-01T08:49:46;5.93;;;3.92;;
21010;SDS011;10663;42.714;23.274;2023-03-01T08:51:18;4.65;;;3.28;;
21010;SDS011;10663;42.714;23.274;2023-03-01T08:52:50;3.90;;;3.20;;
21010;SDS011;10663;42.714;23.274;2023-03-01T08:54:21;4.22;;;3.13;;
21010;SDS011;10663;42.714;23.274;2023-03-01T08:55:52;4.07;;;3.28;;
21010;SDS011;10663;42.714;23.274;2023-03-01T08:57:23;6.30;;;3.30;;
21010;SDS011;10663;42.714;23.274;2023-03-01T08:58:54;4.50;;;3.22;;
21010;SDS011;10663;42.714;23.274;2023-03-01T09:00:25;4.88;;;3.58;;
21010;SDS011;10663;42.714;23.274;2023-03-01T09:01:55;5.28;;;3.20;;
21010;SDS011;10663;42.714;23.274;2023-03-01T09:03:26;4.50;;;3.20;;
21010;SDS011;10663;42.714;23.274;2023-03-01T09:04:57;3.90;;;3.40;;
21010;SDS011;10663;42.714;23.274;2023-03-01T09:06:32;4.95;;;3.33;;
21010;SDS011;10663;42.714;23.274;2023-03-01T09:08:04;5.10;;;3.75;;
21010;SDS011;10663;42.714;23.274;2023-03-01T09:09:35;3.78;;;3.08;;
21010;SDS011;10663;42.714;23.274;2023-03-01T09:11:07;3.22;;;2.88;;
21010;SDS011;10663;42.714;23.274;2023-03-01T09:12:40;4.10;;;2.80;;
21010;SDS011;10663;42.714;23.274;2023-03-01T09:14:11;3.42;;;2.83;;
21010;SDS011;10663;42.714;23.274;2023-03-01T09:15:43;3.90;;;2.93;;
21010;SDS011;10663;42.714;23.274;2023-03-01T09:17:14;2.70;;;2.50;;
21010;SDS011;10663;42.714;23.274;2023-03-01T09:18:45;4.18;;;2.78;;
21010;SDS011;10663;42.714;23.274;2023-03-01T09:20:18;3.10;;;2.50;;
21010;SDS011;10663;42.714;23.274;2023-03-01T09:21:49;2.53;;;2.30;;
21010;SDS011;10663;42.714;23.274;2023-03-01T09:23:23;2.40;;;2.20;;
21010;SDS011;10663;42.714;23.274;2023-03-01T09:24:54;3.10;;;2.60;;
21010;SDS011;10663;42.714;23.274;2023-03-01T09:26:26;4.53;;;2.97;;
21010;SDS011;10663;42.714;23.274;2023-03-01T09:27:57;3.28;;;2.72;;
21010;SDS011;10663;42.714;23.274;2023-03-01T09:29:28;4.28;;;2.70;;
21010;SDS011;10663;42.714;23.274;2023-03-01T09:31:00;3.65;;;2.80;;
21010;SDS011;10663;42.714;23.274;2023-03-01T09:32:31;6.05;;;2.60;;
21010;SDS011;10663;42.714;23.274;2023-03-01T09:34:02;2.35;;;2.15;;
21010;SDS011;10663;42.714;23.274;2023-03-01T09:35:33;2.95;;;2.58;;
21010;SDS011;10663;42.714;23.274;2023-03-01T09:37:04;2.87;;;2.57;;
21010;SDS011;10663;42.714;23.274;2023-03-01T09:38:35;5.00;;;2.60;;
21010;SDS011;10663;42.714;23.274;2023-03-01T09:40:06;3.45;;;2.80;;